Greenisland, United Kingdom
Current Conditions -  °F | °C
As of 6:50 AM on Saturday 27 Dec 2014 (Local Time) from EGAA Reporting Station
Clear Clear  
Wind Chill: 29°   Ceiling: Unl
Heat Index: 36°   Visibility: 6mi
Dew Point: 34°   Wind: 9mph
Humidity: 93%   Direction: 270°W
Pressure: 29.88"   Gusts: NA
Location:  54.7°N, 5.87°W
Report Text: EGAA 270650Z 27008KT CAVOK 02/01 Q1012
Loading
Personal Weather Stations






























Interactive Weather Map New forecast layout! Learn more

10-Day Weather Forecast

Advertisements
Track Severe Weather on mobile